createdAt,value
2023-07-16T00:00:15.632Z,0.00
2023-07-16T00:01:15.587Z,0.00
2023-07-16T00:02:15.629Z,0.00
2023-07-16T00:03:15.592Z,0.00
2023-07-16T00:04:15.628Z,0.00
2023-07-16T00:05:15.567Z,0.00
2023-07-16T00:06:15.730Z,0.00
2023-07-16T00:07:15.511Z,0.00
2023-07-16T00:08:15.511Z,0.00
2023-07-16T00:09:15.489Z,0.00
2023-07-16T00:10:15.507Z,0.00
2023-07-16T00:11:15.500Z,0.00
2023-07-16T00:12:15.541Z,0.00
2023-07-16T00:13:15.481Z,0.00
2023-07-16T00:14:15.454Z,0.00
2023-07-16T00:15:15.448Z,0.00
2023-07-16T00:16:15.775Z,0.00
2023-07-16T00:17:15.427Z,0.00
2023-07-16T00:18:15.413Z,0.00
2023-07-16T00:19:15.404Z,0.00
2023-07-16T00:20:15.388Z,0.00
2023-07-16T00:21:15.428Z,0.00
2023-07-16T00:22:15.353Z,0.00
2023-07-16T00:23:15.413Z,0.00
2023-07-16T00:24:15.353Z,0.00
2023-07-16T00:25:15.335Z,0.00
2023-07-16T00:26:15.648Z,0.00
2023-07-16T00:27:15.329Z,0.00
2023-07-16T00:28:15.319Z,0.00
2023-07-16T00:29:15.311Z,0.00
2023-07-16T00:30:15.267Z,0.00
2023-07-16T00:31:15.362Z,0.00
2023-07-16T00:32:15.289Z,0.00
2023-07-16T00:33:15.251Z,0.00
2023-07-16T00:34:15.221Z,0.00
2023-07-16T00:35:15.229Z,0.00
2023-07-16T00:36:15.519Z,0.00
2023-07-16T00:37:15.220Z,0.00
2023-07-16T00:38:15.183Z,0.00
2023-07-16T00:39:15.173Z,0.00
2023-07-16T00:40:15.193Z,0.00
2023-07-16T00:41:15.156Z,0.00
2023-07-16T00:42:15.174Z,0.00
2023-07-16T00:43:15.160Z,0.00
2023-07-16T00:44:15.141Z,0.00
2023-07-16T00:45:15.118Z,0.00
2023-07-16T00:46:15.407Z,0.00
2023-07-16T00:47:15.131Z,0.00
2023-07-16T00:48:15.098Z,0.00
2023-07-16T00:49:15.103Z,0.00
2023-07-16T00:50:15.074Z,0.00
2023-07-16T00:51:15.071Z,0.00
2023-07-16T00:52:15.076Z,0.00
2023-07-16T00:53:15.042Z,0.00
2023-07-16T00:54:15.066Z,0.00
2023-07-16T00:55:15.030Z,0.00
2023-07-16T00:56:15.230Z,0.00
2023-07-16T00:57:15.045Z,0.00
2023-07-16T00:58:14.981Z,0.00
2023-07-16T00:59:15.002Z,0.00
2023-07-16T01:00:15.011Z,0.00
2023-07-16T01:01:15.060Z,0.00
2023-07-16T01:02:14.969Z,0.00
2023-07-16T01:03:14.978Z,0.00
2023-07-16T01:04:14.965Z,0.00
2023-07-16T01:05:14.935Z,0.00
2023-07-16T01:06:15.190Z,0.00
2023-07-16T01:07:14.947Z,0.00
2023-07-16T01:08:14.889Z,0.00
2023-07-16T01:09:14.875Z,0.00
2023-07-16T01:10:14.883Z,0.00
2023-07-16T01:11:14.857Z,0.00
2023-07-16T01:12:14.881Z,0.00
2023-07-16T01:13:14.874Z,0.00
2023-07-16T01:14:14.843Z,0.00
2023-07-16T01:15:14.808Z,0.00
2023-07-16T01:16:15.083Z,0.00
2023-07-16T01:17:14.815Z,0.00
2023-07-16T01:18:14.880Z,0.00
2023-07-16T01:19:15.022Z,0.00
2023-07-16T01:20:14.755Z,0.00
2023-07-16T01:21:14.751Z,0.00
2023-07-16T01:22:14.739Z,0.00
2023-07-16T01:23:14.768Z,0.00
2023-07-16T01:24:14.737Z,0.00
2023-07-16T01:25:14.720Z,0.00
2023-07-16T01:26:14.906Z,0.00
2023-07-16T01:27:14.712Z,0.00
2023-07-16T01:28:14.747Z,0.00
2023-07-16T01:29:14.655Z,0.00
2023-07-16T01:30:14.669Z,0.00
2023-07-16T01:31:14.707Z,0.00
2023-07-16T01:32:14.650Z,0.00
2023-07-16T01:33:14.672Z,0.00
2023-07-16T01:34:14.650Z,0.00
2023-07-16T01:35:14.617Z,0.00
2023-07-16T01:36:14.911Z,0.00
2023-07-16T01:37:14.584Z,0.00
2023-07-16T01:38:15.581Z,0.00
2023-07-16T01:39:14.571Z,0.00
2023-07-16T01:40:14.576Z,0.00
2023-07-16T01:41:14.554Z,0.00
2023-07-16T01:42:14.538Z,0.00
2023-07-16T01:43:14.519Z,0.00
2023-07-16T01:44:14.544Z,0.00
2023-07-16T01:45:14.529Z,0.00
2023-07-16T01:46:14.904Z,0.00
2023-07-16T01:47:14.521Z,0.00
2023-07-16T01:48:14.474Z,0.00
2023-07-16T01:49:14.482Z,0.00
2023-07-16T01:50:14.509Z,0.00
2023-07-16T01:51:14.462Z,0.00
2023-07-16T01:52:14.450Z,0.00
2023-07-16T01:53:14.425Z,0.00
2023-07-16T01:54:14.472Z,0.00
2023-07-16T01:55:14.399Z,0.00
2023-07-16T01:56:14.724Z,0.00
2023-07-16T01:57:14.394Z,0.00
2023-07-16T01:58:14.384Z,0.00
2023-07-16T01:59:14.385Z,0.00
2023-07-16T02:00:14.384Z,0.00
2023-07-16T02:01:14.422Z,0.00
2023-07-16T02:02:14.388Z,0.00
2023-07-16T02:03:14.438Z,0.00
2023-07-16T02:04:14.325Z,0.00
2023-07-16T02:05:14.330Z,0.00
2023-07-16T02:06:14.498Z,0.00
2023-07-16T02:07:14.271Z,0.00
2023-07-16T02:08:14.272Z,0.00
2023-07-16T02:09:14.285Z,0.00
2023-07-16T02:10:14.320Z,0.00
2023-07-16T02:11:14.268Z,0.00
2023-07-16T02:12:14.276Z,0.00
2023-07-16T02:13:14.259Z,0.00
2023-07-16T02:14:14.213Z,0.00
2023-07-16T02:15:14.235Z,0.00
2023-07-16T02:16:14.580Z,0.00
2023-07-16T02:17:14.204Z,0.00
2023-07-16T02:18:14.214Z,0.00
2023-07-16T02:19:14.170Z,0.00
2023-07-16T02:20:14.150Z,0.00
2023-07-16T02:21:14.164Z,0.00
2023-07-16T02:22:14.129Z,0.00
2023-07-16T02:23:14.159Z,0.00
2023-07-16T02:24:14.129Z,0.00
2023-07-16T02:25:14.165Z,0.00
2023-07-16T02:26:14.383Z,0.00
2023-07-16T02:27:14.122Z,0.00
2023-07-16T02:28:14.101Z,0.00
2023-07-16T02:29:14.090Z,0.00
2023-07-16T02:30:14.089Z,0.00
2023-07-16T02:31:14.097Z,0.00
2023-07-16T02:32:14.044Z,0.00
2023-07-16T02:33:13.968Z,0.00
2023-07-16T02:34:14.009Z,0.00
2023-07-16T02:35:14.046Z,0.00
2023-07-16T02:36:14.254Z,0.00
2023-07-16T02:37:13.943Z,0.00
2023-07-16T02:38:13.912Z,0.00
2023-07-16T02:39:13.924Z,0.00
2023-07-16T02:40:13.886Z,0.00
2023-07-16T02:41:13.873Z,0.00
2023-07-16T02:42:13.881Z,0.00
2023-07-16T02:43:13.878Z,0.00
2023-07-16T02:44:13.922Z,0.00
2023-07-16T02:45:13.875Z,0.00
2023-07-16T02:46:14.382Z,0.00
2023-07-16T02:47:14.111Z,0.00
2023-07-16T02:48:13.850Z,0.00
2023-07-16T02:49:13.903Z,0.00
2023-07-16T02:50:13.813Z,0.00
2023-07-16T02:51:13.785Z,0.00
2023-07-16T02:52:13.845Z,0.00
2023-07-16T02:53:13.797Z,0.00
2023-07-16T02:54:13.740Z,0.00
2023-07-16T02:55:13.783Z,0.00
2023-07-16T02:56:13.853Z,0.00
2023-07-16T02:57:13.720Z,0.00
2023-07-16T02:58:13.727Z,0.00
2023-07-16T02:59:13.715Z,0.00
2023-07-16T03:00:13.741Z,0.00
2023-07-16T03:01:13.754Z,0.00
2023-07-16T03:02:13.744Z,0.00
2023-07-16T03:03:13.794Z,0.00
2023-07-16T03:04:13.671Z,0.00
2023-07-16T03:05:13.653Z,0.00
2023-07-16T03:06:13.835Z,0.00
2023-07-16T03:07:13.637Z,0.00
2023-07-16T03:08:13.602Z,0.00
2023-07-16T03:09:13.589Z,0.00
2023-07-16T03:10:13.614Z,0.00
2023-07-16T03:11:13.611Z,0.00
2023-07-16T03:12:13.652Z,0.00
2023-07-16T03:13:13.564Z,0.00
2023-07-16T03:14:13.552Z,0.00
2023-07-16T03:15:13.579Z,0.00
2023-07-16T03:16:13.784Z,0.00
2023-07-16T03:17:13.628Z,5.62
2023-07-16T03:18:13.517Z,5.62
2023-07-16T03:19:13.516Z,5.62
2023-07-16T03:20:13.506Z,5.62
2023-07-16T03:21:13.471Z,5.62
2023-07-16T03:22:13.515Z,5.62
2023-07-16T03:23:13.534Z,5.62
2023-07-16T03:24:13.433Z,5.62
2023-07-16T03:25:13.445Z,5.62
2023-07-16T03:26:13.539Z,5.62
2023-07-16T03:27:18.647Z,5.62
2023-07-16T03:28:14.402Z,5.62
2023-07-16T03:29:13.384Z,5.62
2023-07-16T03:30:13.418Z,5.62
2023-07-16T03:31:13.389Z,5.62
2023-07-16T03:32:13.388Z,5.62
2023-07-16T03:33:13.426Z,5.62
2023-07-16T03:34:13.350Z,5.62
2023-07-16T03:35:13.392Z,5.62
2023-07-16T03:36:13.569Z,11.25
2023-07-16T03:37:13.322Z,11.25
2023-07-16T03:38:13.293Z,11.25
2023-07-16T03:39:13.327Z,11.25
2023-07-16T03:40:13.345Z,16.88
2023-07-16T03:41:13.297Z,11.25
2023-07-16T03:42:13.256Z,11.25
2023-07-16T03:43:13.259Z,11.25
2023-07-16T03:44:13.258Z,11.25
2023-07-16T03:45:13.254Z,11.25
2023-07-16T03:46:13.467Z,11.25
2023-07-16T03:47:13.256Z,11.25
2023-07-16T03:48:13.243Z,11.25
2023-07-16T03:49:13.230Z,11.25
2023-07-16T03:50:13.258Z,11.25
2023-07-16T03:51:13.189Z,11.25
2023-07-16T03:52:13.160Z,16.88
2023-07-16T03:53:13.156Z,16.88
2023-07-16T03:54:13.174Z,16.88
2023-07-16T03:55:13.161Z,16.88
2023-07-16T03:56:13.318Z,16.88
2023-07-16T03:57:13.136Z,16.88
2023-07-16T03:58:13.140Z,22.50
2023-07-16T03:59:13.120Z,22.50
2023-07-16T04:00:13.153Z,22.50
2023-07-16T04:01:13.093Z,22.50
2023-07-16T04:02:13.267Z,22.50
2023-07-16T04:03:13.109Z,28.12
2023-07-16T04:04:13.078Z,28.12
2023-07-16T04:05:13.064Z,33.75
2023-07-16T04:06:13.140Z,33.75
2023-07-16T04:07:13.021Z,39.38
2023-07-16T04:08:13.016Z,39.38
2023-07-16T04:09:12.977Z,39.38
2023-07-16T04:10:13.031Z,39.38
2023-07-16T04:11:12.981Z,45.00
2023-07-16T04:12:12.975Z,50.62
2023-07-16T04:13:12.983Z,50.62
2023-07-16T04:14:12.972Z,50.62
2023-07-16T04:15:12.977Z,45.00
2023-07-16T04:16:12.946Z,45.00
2023-07-16T04:17:12.908Z,39.38
2023-07-16T04:18:12.915Z,39.38
2023-07-16T04:19:13.500Z,33.75
2023-07-16T04:20:12.914Z,33.75
2023-07-16T04:21:12.914Z,33.75
2023-07-16T04:22:12.878Z,33.75
2023-07-16T04:23:12.905Z,33.75
2023-07-16T04:24:12.828Z,33.75
2023-07-16T04:25:12.838Z,33.75
2023-07-16T04:26:12.831Z,39.38
2023-07-16T04:27:12.799Z,45.00
2023-07-16T04:28:12.788Z,50.62
2023-07-16T04:29:12.815Z,61.88
2023-07-16T04:30:12.773Z,67.50
2023-07-16T04:31:12.901Z,67.50
2023-07-16T04:32:12.745Z,73.12
2023-07-16T04:33:12.739Z,78.75
2023-07-16T04:34:12.778Z,78.75
2023-07-16T04:35:12.732Z,78.75
2023-07-16T04:36:12.711Z,73.12
2023-07-16T04:37:12.714Z,61.88
2023-07-16T04:38:12.684Z,50.62
2023-07-16T04:39:12.734Z,39.38
2023-07-16T04:40:12.753Z,33.75
2023-07-16T04:41:12.644Z,33.75
2023-07-16T04:42:12.710Z,28.12
2023-07-16T04:43:12.664Z,22.50
2023-07-16T04:44:12.644Z,22.50
2023-07-16T04:45:12.645Z,16.88
2023-07-16T04:46:12.660Z,16.88
2023-07-16T04:47:12.630Z,16.88
2023-07-16T04:48:12.632Z,11.25
2023-07-16T04:49:12.610Z,11.25
2023-07-16T04:50:12.578Z,11.25
2023-07-16T04:51:12.620Z,11.25
2023-07-16T04:52:12.533Z,11.25
2023-07-16T04:53:12.545Z,16.88
2023-07-16T04:54:12.551Z,22.50
2023-07-16T04:55:12.533Z,28.12
2023-07-16T04:56:12.498Z,39.38
2023-07-16T04:57:12.513Z,50.62
2023-07-16T04:58:12.503Z,45.00
2023-07-16T04:59:12.471Z,39.38
2023-07-16T05:00:12.496Z,39.38
2023-07-16T05:01:12.509Z,39.38
2023-07-16T05:02:12.539Z,39.38
2023-07-16T05:03:12.436Z,50.62
2023-07-16T05:04:12.476Z,56.25
2023-07-16T05:05:12.410Z,61.88
2023-07-16T05:06:12.423Z,61.88
2023-07-16T05:07:12.438Z,67.50
2023-07-16T05:08:12.400Z,67.50
2023-07-16T05:09:12.369Z,67.50
2023-07-16T05:10:12.404Z,61.88
2023-07-16T05:11:12.365Z,56.25
2023-07-16T05:12:12.330Z,56.25
2023-07-16T05:13:12.357Z,50.62
2023-07-16T05:14:12.311Z,50.62
2023-07-16T05:15:12.307Z,56.25
2023-07-16T05:16:12.391Z,67.50
2023-07-16T05:17:12.427Z,73.12
2023-07-16T05:18:12.346Z,78.75
2023-07-16T05:19:12.291Z,84.38
2023-07-16T05:20:12.254Z,90.00
2023-07-16T05:21:12.262Z,95.62
2023-07-16T05:22:12.251Z,106.88
2023-07-16T05:23:12.249Z,135.00
2023-07-16T05:24:12.222Z,168.75
2023-07-16T05:25:12.242Z,196.88
2023-07-16T05:26:12.220Z,230.62
2023-07-16T05:27:12.215Z,275.62
2023-07-16T05:28:12.203Z,326.25
2023-07-16T05:29:12.206Z,309.38
2023-07-16T05:30:12.162Z,337.50
2023-07-16T05:31:12.222Z,545.62
2023-07-16T05:32:12.333Z,393.75
2023-07-16T05:33:12.129Z,410.62
2023-07-16T05:34:12.113Z,641.25
2023-07-16T05:35:12.126Z,641.25
2023-07-16T05:36:12.089Z,1288.12
2023-07-16T05:37:12.088Z,916.88
2023-07-16T05:38:12.070Z,1231.88
2023-07-16T05:39:12.119Z,753.75
2023-07-16T05:40:12.078Z,1096.88
2023-07-16T05:41:12.053Z,405.00
2023-07-16T05:42:12.035Z,315.00
2023-07-16T05:43:12.070Z,303.75
2023-07-16T05:44:12.021Z,286.88
2023-07-16T05:45:12.057Z,309.38
2023-07-16T05:46:12.090Z,270.00
2023-07-16T05:47:12.007Z,275.62
2023-07-16T05:48:12.111Z,286.88
2023-07-16T05:49:11.991Z,331.88
2023-07-16T05:50:14.026Z,495.00
2023-07-16T05:51:11.962Z,405.00
2023-07-16T05:52:11.960Z,562.50
2023-07-16T05:53:11.981Z,472.50
2023-07-16T05:54:11.923Z,348.75
2023-07-16T05:55:11.917Z,326.25
2023-07-16T05:56:11.922Z,309.38
2023-07-16T05:57:11.901Z,264.38
2023-07-16T05:58:11.916Z,258.75
2023-07-16T05:59:11.871Z,731.25
2023-07-16T06:00:11.907Z,759.38
2023-07-16T06:01:11.857Z,770.62
2023-07-16T06:02:11.846Z,725.62
2023-07-16T06:03:11.958Z,697.50
2023-07-16T06:04:11.882Z,742.50
2023-07-16T06:05:11.843Z,765.00
2023-07-16T06:06:11.795Z,720.00
2023-07-16T06:07:11.813Z,630.00
2023-07-16T06:08:11.790Z,748.12
2023-07-16T06:09:11.777Z,585.00
2023-07-16T06:10:11.792Z,849.38
2023-07-16T06:11:11.752Z,894.38
2023-07-16T06:12:11.718Z,686.25
2023-07-16T06:13:11.737Z,843.75
2023-07-16T06:14:11.730Z,871.88
2023-07-16T06:15:11.742Z,916.88
2023-07-16T06:16:11.792Z,950.62
2023-07-16T06:17:11.708Z,995.62
2023-07-16T06:18:12.896Z,961.88
2023-07-16T06:19:11.689Z,883.12
2023-07-16T06:20:11.676Z,995.62
2023-07-16T06:21:11.657Z,1091.25
2023-07-16T06:22:11.658Z,1068.75
2023-07-16T06:23:11.683Z,1192.50
2023-07-16T06:24:14.228Z,371.25
2023-07-16T06:25:11.621Z,270.00
2023-07-16T06:26:11.612Z,241.88
2023-07-16T06:27:11.590Z,2154.38
2023-07-16T06:28:11.595Z,2103.75
2023-07-16T06:29:11.590Z,1794.38
2023-07-16T06:30:11.557Z,1833.75
2023-07-16T06:31:11.613Z,1845.00
2023-07-16T06:32:11.548Z,1631.25
2023-07-16T06:33:11.587Z,1406.25
2023-07-16T06:34:11.549Z,911.25
2023-07-16T06:35:11.516Z,1119.38
2023-07-16T06:36:11.500Z,1057.50
2023-07-16T06:37:12.426Z,1074.38
2023-07-16T06:38:11.496Z,1012.50
2023-07-16T06:39:11.508Z,990.00
2023-07-16T06:40:11.481Z,916.88
2023-07-16T06:41:11.459Z,877.50
2023-07-16T06:42:11.434Z,821.25
2023-07-16T06:43:11.420Z,815.62
2023-07-16T06:44:11.481Z,793.12
2023-07-16T06:45:11.439Z,776.25
2023-07-16T06:46:11.469Z,725.62
2023-07-16T06:47:11.398Z,669.38
2023-07-16T06:48:11.367Z,624.38
2023-07-16T06:49:11.405Z,596.25
2023-07-16T06:50:11.383Z,601.88
2023-07-16T06:51:11.362Z,607.50
2023-07-16T06:52:11.351Z,596.25
2023-07-16T06:53:11.359Z,551.25
2023-07-16T06:54:11.307Z,489.38
2023-07-16T06:55:11.308Z,478.12
2023-07-16T06:56:11.333Z,483.75
2023-07-16T06:57:11.301Z,489.38
2023-07-16T06:58:11.283Z,495.00
2023-07-16T06:59:11.284Z,421.88
2023-07-16T07:00:11.266Z,320.62
2023-07-16T07:01:11.301Z,500.62
2023-07-16T07:02:11.256Z,478.12
2023-07-16T07:03:11.398Z,438.75
2023-07-16T07:04:11.303Z,416.25
2023-07-16T07:05:11.217Z,376.88
2023-07-16T07:06:11.185Z,568.12
2023-07-16T07:07:11.259Z,500.62
2023-07-16T07:08:11.159Z,455.62
2023-07-16T07:09:11.220Z,478.12
2023-07-16T07:10:11.176Z,405.00
2023-07-16T07:11:11.147Z,348.75
2023-07-16T07:12:11.250Z,382.50
2023-07-16T07:13:11.144Z,416.25
2023-07-16T07:14:12.038Z,427.50
2023-07-16T07:15:11.127Z,545.62
2023-07-16T07:16:11.186Z,523.12
2023-07-16T07:17:11.114Z,540.00
2023-07-16T07:18:11.083Z,523.12
2023-07-16T07:19:11.114Z,331.88
2023-07-16T07:20:11.094Z,292.50
2023-07-16T07:21:11.080Z,275.62
2023-07-16T07:22:11.157Z,450.00
2023-07-16T07:23:11.150Z,343.12
2023-07-16T07:24:11.089Z,478.12
2023-07-16T07:25:11.123Z,405.00
2023-07-16T07:26:10.998Z,427.50
2023-07-16T07:27:11.012Z,382.50
2023-07-16T07:28:10.998Z,376.88
2023-07-16T07:29:10.975Z,438.75
2023-07-16T07:30:10.976Z,483.75
2023-07-16T07:31:10.984Z,444.38
2023-07-16T07:32:10.954Z,421.88
2023-07-16T07:33:10.946Z,450.00
2023-07-16T07:34:11.083Z,421.88
2023-07-16T07:35:10.925Z,438.75
2023-07-16T07:36:10.891Z,461.25
2023-07-16T07:37:10.875Z,540.00
2023-07-16T07:38:10.936Z,466.88
2023-07-16T07:39:10.878Z,438.75
2023-07-16T07:40:10.857Z,421.88
2023-07-16T07:41:10.863Z,410.62
2023-07-16T07:42:10.854Z,410.62
2023-07-16T07:43:10.853Z,450.00
2023-07-16T07:44:10.815Z,450.00
2023-07-16T07:45:10.824Z,500.62
2023-07-16T07:46:10.809Z,483.75
2023-07-16T07:47:10.899Z,444.38
2023-07-16T07:48:10.806Z,517.50
2023-07-16T07:49:10.782Z,489.38
2023-07-16T07:50:10.789Z,483.75
2023-07-16T07:51:10.737Z,495.00
2023-07-16T07:52:10.767Z,472.50
2023-07-16T07:53:10.754Z,433.12
2023-07-16T07:54:10.704Z,433.12
2023-07-16T07:55:10.721Z,360.00
2023-07-16T07:56:10.715Z,354.38
2023-07-16T07:57:10.741Z,371.25
2023-07-16T07:58:10.691Z,405.00
2023-07-16T07:59:10.714Z,455.62
2023-07-16T08:00:10.649Z,360.00
2023-07-16T08:01:10.654Z,298.12
2023-07-16T08:02:10.679Z,253.12
2023-07-16T08:03:10.812Z,241.88
2023-07-16T08:04:10.791Z,270.00
2023-07-16T08:05:10.725Z,253.12
2023-07-16T08:06:10.636Z,275.62
2023-07-16T08:07:10.631Z,258.75
2023-07-16T08:08:10.571Z,270.00
2023-07-16T08:09:10.567Z,270.00
2023-07-16T08:10:10.630Z,281.25
2023-07-16T08:11:10.580Z,382.50
2023-07-16T08:12:10.542Z,399.38
2023-07-16T08:13:10.543Z,410.62
2023-07-16T08:14:10.575Z,421.88
2023-07-16T08:15:10.511Z,438.75
2023-07-16T08:16:10.587Z,472.50
2023-07-16T08:17:10.513Z,511.88
2023-07-16T08:18:10.531Z,523.12
2023-07-16T08:19:10.477Z,495.00
2023-07-16T08:20:10.469Z,427.50
2023-07-16T08:21:10.482Z,326.25
2023-07-16T08:22:10.437Z,286.88
2023-07-16T08:23:10.569Z,241.88
2023-07-16T08:24:10.446Z,191.25
2023-07-16T08:25:10.415Z,180.00
2023-07-16T08:26:10.400Z,180.00
2023-07-16T08:27:10.409Z,174.38
2023-07-16T08:28:10.405Z,180.00
2023-07-16T08:29:10.389Z,191.25
2023-07-16T08:30:10.361Z,191.25
2023-07-16T08:31:10.365Z,191.25
2023-07-16T08:32:10.355Z,202.50
2023-07-16T08:33:10.353Z,241.88
2023-07-16T08:34:10.349Z,258.75
2023-07-16T08:35:10.344Z,360.00
2023-07-16T08:36:10.297Z,354.38
2023-07-16T08:37:10.315Z,343.12
2023-07-16T08:38:10.275Z,337.50
2023-07-16T08:39:10.275Z,326.25
2023-07-16T08:40:10.293Z,326.25
2023-07-16T08:41:10.231Z,320.62
2023-07-16T08:42:10.246Z,326.25
2023-07-16T08:43:10.210Z,331.88
2023-07-16T08:44:10.256Z,331.88
2023-07-16T08:45:10.248Z,343.12
2023-07-16T08:46:10.244Z,343.12
2023-07-16T08:47:10.233Z,354.38
2023-07-16T08:48:10.227Z,360.00
2023-07-16T08:49:10.187Z,371.25
2023-07-16T08:50:10.152Z,388.12
2023-07-16T08:51:10.143Z,399.38
2023-07-16T08:52:10.149Z,309.38
2023-07-16T08:53:10.152Z,354.38
2023-07-16T08:54:10.162Z,303.75
2023-07-16T08:55:10.126Z,382.50
2023-07-16T08:56:10.141Z,376.88
2023-07-16T08:57:10.124Z,371.25
2023-07-16T08:58:10.071Z,258.75
2023-07-16T08:59:10.090Z,376.88
2023-07-16T09:00:10.091Z,298.12
2023-07-16T09:01:10.043Z,281.25
2023-07-16T09:02:10.111Z,388.12
2023-07-16T09:03:10.111Z,331.88
2023-07-16T09:04:10.032Z,258.75
2023-07-16T09:05:13.822Z,247.50
2023-07-16T09:06:11.047Z,241.88
2023-07-16T09:07:09.985Z,354.38
2023-07-16T09:08:10.016Z,376.88
2023-07-16T09:09:09.991Z,376.88
2023-07-16T09:10:10.038Z,270.00
2023-07-16T09:11:10.001Z,253.12
2023-07-16T09:12:09.971Z,258.75
2023-07-16T09:13:09.925Z,393.75
2023-07-16T09:14:09.932Z,393.75
2023-07-16T09:15:09.940Z,399.38
2023-07-16T09:16:09.927Z,354.38
2023-07-16T09:17:09.968Z,315.00
2023-07-16T09:18:10.076Z,427.50
2023-07-16T09:19:09.879Z,427.50
2023-07-16T09:20:09.925Z,298.12
2023-07-16T09:21:09.836Z,270.00
2023-07-16T09:22:09.876Z,421.88
2023-07-16T09:23:09.959Z,331.88
2023-07-16T09:24:09.884Z,444.38
2023-07-16T09:25:09.863Z,427.50
2023-07-16T09:26:09.811Z,264.38
2023-07-16T09:27:09.837Z,388.12
2023-07-16T09:28:09.783Z,241.88
2023-07-16T09:29:09.775Z,230.62
2023-07-16T09:30:09.838Z,213.75
2023-07-16T09:31:09.793Z,213.75
2023-07-16T09:32:09.825Z,371.25
2023-07-16T09:33:09.719Z,388.12
2023-07-16T09:34:09.707Z,393.75
2023-07-16T09:35:09.778Z,371.25
2023-07-16T09:36:09.706Z,241.88
2023-07-16T09:37:09.688Z,275.62
2023-07-16T09:38:09.683Z,264.38
2023-07-16T09:39:09.684Z,416.25
2023-07-16T09:40:09.690Z,416.25
2023-07-16T09:41:09.690Z,320.62
2023-07-16T09:42:09.722Z,348.75
2023-07-16T09:43:09.663Z,360.00
2023-07-16T09:44:09.629Z,365.62
2023-07-16T09:45:09.598Z,365.62
2023-07-16T09:46:09.650Z,354.38
2023-07-16T09:47:09.677Z,360.00
2023-07-16T09:48:09.692Z,348.75
2023-07-16T09:49:09.560Z,354.38
2023-07-16T09:50:09.547Z,360.00
2023-07-16T09:51:09.558Z,376.88
2023-07-16T09:52:09.557Z,371.25
2023-07-16T09:53:09.520Z,382.50
2023-07-16T09:54:09.518Z,393.75
2023-07-16T09:55:09.556Z,399.38
2023-07-16T09:56:09.498Z,399.38
2023-07-16T09:57:09.510Z,405.00
2023-07-16T09:58:09.473Z,410.62
2023-07-16T09:59:09.463Z,416.25
2023-07-16T10:00:09.477Z,416.25
2023-07-16T10:01:09.585Z,421.88
2023-07-16T10:02:09.468Z,427.50
2023-07-16T10:03:09.484Z,427.50
2023-07-16T10:04:09.466Z,416.25
2023-07-16T10:05:09.442Z,421.88
2023-07-16T10:06:09.424Z,343.12
2023-07-16T10:07:09.374Z,399.38
2023-07-16T10:08:09.382Z,489.38
2023-07-16T10:09:09.384Z,472.50
2023-07-16T10:10:09.370Z,309.38
2023-07-16T10:11:09.381Z,315.00
2023-07-16T10:12:09.367Z,348.75
2023-07-16T10:13:09.411Z,315.00
2023-07-16T10:14:09.337Z,466.88
2023-07-16T10:15:09.352Z,337.50
2023-07-16T10:16:09.387Z,309.38
2023-07-16T10:17:09.272Z,472.50
2023-07-16T10:18:09.312Z,461.25
2023-07-16T10:19:09.277Z,444.38
2023-07-16T10:20:09.258Z,433.12
2023-07-16T10:21:09.551Z,427.50
2023-07-16T10:22:09.237Z,416.25
2023-07-16T10:23:09.345Z,416.25
2023-07-16T10:24:09.214Z,416.25
2023-07-16T10:25:09.213Z,410.62
2023-07-16T10:26:09.206Z,410.62
2023-07-16T10:27:09.178Z,405.00
2023-07-16T10:28:09.193Z,410.62
2023-07-16T10:29:09.170Z,410.62
2023-07-16T10:30:09.223Z,410.62
2023-07-16T10:31:09.185Z,416.25
2023-07-16T10:32:09.150Z,421.88
2023-07-16T10:33:09.161Z,427.50
2023-07-16T10:34:09.163Z,421.88
2023-07-16T10:35:09.091Z,433.12
2023-07-16T10:36:09.076Z,438.75
2023-07-16T10:37:09.121Z,444.38
2023-07-16T10:38:09.076Z,450.00
2023-07-16T10:39:09.130Z,450.00
2023-07-16T10:40:09.071Z,450.00
2023-07-16T10:41:09.060Z,264.38
2023-07-16T10:42:09.017Z,478.12
2023-07-16T10:43:09.041Z,489.38
2023-07-16T10:44:09.038Z,489.38
2023-07-16T10:45:09.023Z,500.62
2023-07-16T10:46:09.140Z,483.75
2023-07-16T10:47:08.994Z,275.62
2023-07-16T10:48:09.131Z,264.38
2023-07-16T10:49:08.972Z,258.75
2023-07-16T10:50:09.026Z,258.75
2023-07-16T10:51:09.008Z,275.62
2023-07-16T10:52:08.944Z,315.00
2023-07-16T10:53:08.949Z,331.88
2023-07-16T10:54:08.900Z,354.38
2023-07-16T10:55:08.906Z,343.12
2023-07-16T10:56:08.914Z,360.00
2023-07-16T10:57:08.863Z,376.88
2023-07-16T10:58:08.890Z,382.50
2023-07-16T10:59:08.867Z,388.12
2023-07-16T11:00:08.881Z,410.62
2023-07-16T11:01:08.899Z,410.62
2023-07-16T11:02:08.975Z,517.50
2023-07-16T11:03:08.895Z,371.25
2023-07-16T11:04:08.833Z,354.38
2023-07-16T11:05:08.820Z,343.12
2023-07-16T11:06:08.788Z,343.12
2023-07-16T11:07:08.789Z,337.50
2023-07-16T11:08:08.776Z,343.12
2023-07-16T11:09:08.759Z,348.75
2023-07-16T11:10:08.777Z,376.88
2023-07-16T11:11:08.770Z,506.25
2023-07-16T11:12:08.716Z,326.25
2023-07-16T11:13:08.726Z,331.88
2023-07-16T11:14:08.705Z,331.88
2023-07-16T11:15:08.679Z,331.88
2023-07-16T11:16:08.765Z,315.00
2023-07-16T11:17:08.668Z,540.00
2023-07-16T11:18:08.722Z,523.12
2023-07-16T11:19:08.865Z,354.38
2023-07-16T11:20:08.662Z,405.00
2023-07-16T11:21:08.622Z,483.75
2023-07-16T11:22:08.621Z,472.50
2023-07-16T11:23:08.636Z,472.50
2023-07-16T11:24:08.630Z,466.88
2023-07-16T11:25:08.604Z,466.88
2023-07-16T11:26:08.571Z,461.25
2023-07-16T11:27:08.568Z,472.50
2023-07-16T11:28:08.555Z,326.25
2023-07-16T11:29:08.584Z,483.75
2023-07-16T11:30:08.533Z,264.38
2023-07-16T11:31:08.605Z,258.75
2023-07-16T11:32:08.587Z,264.38
2023-07-16T11:33:08.574Z,292.50
2023-07-16T11:34:08.568Z,528.75
2023-07-16T11:35:08.505Z,573.75
2023-07-16T11:36:08.472Z,568.12
2023-07-16T11:37:08.498Z,540.00
2023-07-16T11:38:08.474Z,528.75
2023-07-16T11:39:08.482Z,523.12
2023-07-16T11:40:08.484Z,528.75
2023-07-16T11:41:08.433Z,540.00
2023-07-16T11:42:08.464Z,545.62
2023-07-16T11:43:08.428Z,551.25
2023-07-16T11:44:08.413Z,331.88
2023-07-16T11:45:08.422Z,298.12
2023-07-16T11:46:08.411Z,292.50
2023-07-16T11:47:08.432Z,270.00
2023-07-16T11:48:08.364Z,281.25
2023-07-16T11:49:08.360Z,292.50
2023-07-16T11:50:08.363Z,309.38
2023-07-16T11:51:08.341Z,399.38
2023-07-16T11:52:08.364Z,534.38
2023-07-16T11:53:08.326Z,528.75
2023-07-16T11:54:08.301Z,455.62
2023-07-16T11:55:08.354Z,511.88
2023-07-16T11:56:08.279Z,489.38
2023-07-16T11:57:08.261Z,489.38
2023-07-16T11:58:08.253Z,483.75
2023-07-16T11:59:08.267Z,483.75
2023-07-16T12:00:08.251Z,483.75
2023-07-16T12:01:08.312Z,483.75
2023-07-16T12:02:08.264Z,483.75
2023-07-16T12:03:08.332Z,483.75
2023-07-16T12:04:08.350Z,500.62
2023-07-16T12:05:08.211Z,517.50
2023-07-16T12:06:08.178Z,528.75
2023-07-16T12:07:08.156Z,416.25
2023-07-16T12:08:08.186Z,534.38
2023-07-16T12:09:08.182Z,523.12
2023-07-16T12:10:08.303Z,292.50
2023-07-16T12:11:08.125Z,275.62
2023-07-16T12:12:08.150Z,281.25
2023-07-16T12:13:08.169Z,303.75
2023-07-16T12:14:08.125Z,562.50
2023-07-16T12:15:08.185Z,540.00
2023-07-16T12:16:08.093Z,579.38
2023-07-16T12:17:08.157Z,607.50
2023-07-16T12:18:08.258Z,556.88
2023-07-16T12:19:08.070Z,365.62
2023-07-16T12:20:08.204Z,348.75
2023-07-16T12:21:08.133Z,393.75
2023-07-16T12:22:08.155Z,320.62
2023-07-16T12:23:08.225Z,309.38
2023-07-16T12:24:08.178Z,315.00
2023-07-16T12:25:07.979Z,315.00
2023-07-16T12:26:07.990Z,343.12
2023-07-16T12:27:08.057Z,315.00
2023-07-16T12:28:07.966Z,382.50
2023-07-16T12:29:07.957Z,315.00
2023-07-16T12:30:07.980Z,320.62
2023-07-16T12:31:07.944Z,556.88
2023-07-16T12:32:07.940Z,545.62
2023-07-16T12:33:07.970Z,545.62
2023-07-16T12:34:07.890Z,540.00
2023-07-16T12:35:07.890Z,551.25
2023-07-16T12:36:07.908Z,545.62
2023-07-16T12:37:08.002Z,540.00
2023-07-16T12:38:07.877Z,540.00
2023-07-16T12:39:07.888Z,545.62
2023-07-16T12:40:07.856Z,545.62
2023-07-16T12:41:07.840Z,562.50
2023-07-16T12:42:07.860Z,562.50
2023-07-16T12:43:07.797Z,511.88
2023-07-16T12:44:07.796Z,511.88